Time;durP1;ratioP1;P1;durP2;ratioP2;P2;SDS_P1;SDS_P2;PMS_P1;PMS_P2;Temp;Humidity;BMP_temperature;BMP_pressure;BME280_temperature;BME280_humidity;BME280_pressure;Samples;Min_cycle;Max_cycle;Signal;HPM_P1;HPM_P2
2021/10/10 00:01:25;;;;;;;12.93;5.80;;;;;;;13.10;35.44;102791.42;1744177;82;21018;-46
2021/10/10 00:03:51;;;;;;;9.53;5.17;;;;;;;13.08;35.24;102789.66;1741604;82;21033;-49
2021/10/10 00:06:18;;;;;;;9.58;5.67;;;;;;;13.08;35.49;102793.59;1742980;81;21589;-49
2021/10/10 00:08:44;;;;;;;9.43;5.42;;;;;;;13.08;35.36;102788.82;1743204;82;21042;-49
2021/10/10 00:11:12;;;;;;;7.47;5.30;;;;;;;13.05;35.43;102794.91;1744019;82;21076;-50
2021/10/10 00:13:39;;;;;;;9.15;5.47;;;;;;;13.02;35.72;102785.71;1743861;82;21023;-49
2021/10/10 00:16:06;;;;;;;9.28;5.05;;;;;;;13.02;35.77;102787.48;1731055;82;21470;-49
2021/10/10 00:18:32;;;;;;;14.38;5.67;;;;;;;13.00;35.78;102783.99;1739217;82;21015;-48
2021/10/10 00:20:59;;;;;;;8.90;5.58;;;;;;;12.99;35.75;102784.84;1733136;82;21035;-49
2021/10/10 00:23:27;;;;;;;8.18;5.10;;;;;;;12.98;35.54;102785.28;1733313;82;21050;-50
2021/10/10 00:25:53;;;;;;;7.62;4.85;;;;;;;12.97;35.57;102783.55;1730488;82;21518;-50
2021/10/10 00:28:20;;;;;;;8.58;4.87;;;;;;;12.95;35.49;102782.68;1732898;82;21011;-49
2021/10/10 00:30:46;;;;;;;7.85;5.17;;;;;;;12.95;35.28;102790.52;1732740;82;20991;-52
2021/10/10 00:33:13;;;;;;;10.40;5.42;;;;;;;12.94;35.33;102786.14;1730626;82;21459;-49
2021/10/10 00:35:39;;;;;;;8.10;5.40;;;;;;;12.91;35.49;102784.86;1732329;82;21015;-49
2021/10/10 00:38:06;;;;;;;8.20;4.90;;;;;;;12.88;35.42;102782.69;1732175;82;21097;-49
2021/10/10 00:40:33;;;;;;;8.28;4.97;;;;;;;12.85;35.24;102783.55;1732994;82;21085;-50
2021/10/10 00:42:59;;;;;;;11.18;5.45;;;;;;;12.81;35.25;102787.02;1732422;82;21038;-49
2021/10/10 00:45:26;;;;;;;10.60;5.03;;;;;;;12.78;35.26;102784.39;1730120;82;21074;-47
2021/10/10 00:47:53;;;;;;;9.48;5.67;;;;;;;12.75;35.17;102785.72;1728771;82;21587;-49
2021/10/10 00:50:20;;;;;;;7.08;5.17;;;;;;;12.71;35.41;102789.19;1725370;82;21006;-46
2021/10/10 00:52:46;;;;;;;9.33;5.60;;;;;;;12.68;35.73;102785.25;1735926;82;21051;-49
2021/10/10 00:55:13;;;;;;;9.48;5.35;;;;;;;12.66;35.75;102784.38;1735794;82;21030;-49
2021/10/10 00:57:45;;;;;;;9.35;5.25;;;;;;;12.64;35.87;102788.73;1675775;83;21082;-49
2021/10/10 01:00:13;;;;;;;10.78;6.10;;;;;;;12.62;35.75;102782.63;1732391;82;20998;-49
2021/10/10 01:02:43;;;;;;;10.48;5.55;;;;;;;12.61;35.91;102782.18;1733010;82;21436;-49
2021/10/10 01:05:11;;;;;;;11.63;6.17;;;;;;;12.60;36.26;102781.76;1732513;82;21030;-49
2021/10/10 01:07:38;;;;;;;7.58;5.25;;;;;;;12.60;35.81;102784.80;1732649;82;21074;-49
2021/10/10 01:10:08;;;;;;;10.63;6.15;;;;;;;12.58;35.88;102780.89;1732611;82;21510;-49
2021/10/10 01:12:35;;;;;;;10.65;5.83;;;;;;;12.57;36.03;102776.52;1734344;82;21045;-49
2021/10/10 01:15:03;;;;;;;9.15;5.80;;;;;;;12.56;36.18;102779.13;1731422;82;21066;-49
2021/10/10 01:17:31;;;;;;;10.38;6.05;;;;;;;12.54;36.18;102781.75;1730341;82;21431;-49
2021/10/10 01:19:57;;;;;;;8.80;5.70;;;;;;;12.53;36.06;102792.20;1732057;82;21081;-48
2021/10/10 01:22:24;;;;;;;8.63;5.05;;;;;;;12.52;36.17;102786.09;1715280;82;21503;-49
2021/10/10 01:24:51;;;;;;;10.53;5.55;;;;;;;12.49;35.58;102791.30;1737951;82;21054;-50
2021/10/10 01:27:17;;;;;;;10.58;5.65;;;;;;;12.47;35.89;102793.03;1739988;81;21542;-47
2021/10/10 01:29:44;;;;;;;13.40;6.65;;;;;;;12.46;35.77;102794.34;1739316;82;21002;-50
2021/10/10 01:32:11;;;;;;;9.85;5.35;;;;;;;12.44;35.68;102795.65;1742099;82;20990;-50
2021/10/10 01:34:43;;;;;;;14.45;5.92;;;;;;;12.43;35.76;102791.28;1740748;82;21022;-49
2021/10/10 01:37:11;;;;;;;8.28;5.08;;;;;;;12.42;35.72;102801.30;1736726;82;21472;-49
2021/10/10 01:39:38;;;;;;;6.92;4.80;;;;;;;12.41;35.78;102803.45;1738048;82;21039;-49
2021/10/10 01:42:05;;;;;;;11.12;6.22;;;;;;;12.42;36.21;102805.22;1737841;82;20970;-49
2021/10/10 01:44:31;;;;;;;8.50;5.42;;;;;;;12.42;36.09;102806.53;1738195;81;21030;-49
2021/10/10 01:46:58;;;;;;;7.17;5.30;;;;;;;12.40;36.07;102801.73;1738176;82;21022;-49
2021/10/10 01:49:25;;;;;;;10.03;5.97;;;;;;;12.38;36.24;102795.63;1739959;81;21045;-49
2021/10/10 01:51:51;;;;;;;7.62;5.20;;;;;;;12.36;36.11;102799.98;1741235;82;21427;-50
2021/10/10 01:54:17;;;;;;;6.75;5.08;;;;;;;12.33;35.93;102802.56;1740472;82;21029;-49
2021/10/10 01:56:44;;;;;;;9.75;5.42;;;;;;;12.32;35.68;102806.06;1738448;82;21002;-49
2021/10/10 01:59:10;;;;;;;8.53;5.33;;;;;;;12.30;35.89;102807.80;1736925;82;21019;-50
2021/10/10 02:01:37;;;;;;;7.70;5.00;;;;;;;12.28;35.93;102808.22;1741046;82;20967;-50
2021/10/10 02:04:04;;;;;;;11.63;5.87;;;;;;;12.25;35.25;102809.50;1741213;82;21435;-49
2021/10/10 02:06:31;;;;;;;11.78;5.67;;;;;;;12.21;35.13;102813.84;1739673;82;21483;-49
2021/10/10 02:08:58;;;;;;;12.37;5.75;;;;;;;12.18;35.50;102803.80;1738141;82;21073;-49
2021/10/10 02:11:24;;;;;;;8.63;5.60;;;;;;;12.16;36.01;102804.23;1738133;82;21463;-49
2021/10/10 02:13:51;;;;;;;10.38;6.08;;;;;;;12.13;35.97;102800.31;1738254;82;21127;-49
2021/10/10 02:16:18;;;;;;;9.90;5.60;;;;;;;12.09;35.53;102810.30;1732939;82;21078;-50
2021/10/10 02:18:45;;;;;;;11.15;6.28;;;;;;;12.05;35.58;102813.77;1737205;82;21016;-49
2021/10/10 02:21:12;;;;;;;11.50;5.97;;;;;;;12.03;35.04;102825.94;1732397;82;21589;-46
2021/10/10 02:23:38;;;;;;;8.15;5.78;;;;;;;11.97;35.70;102824.59;1732514;82;21042;-51
2021/10/10 02:26:05;;;;;;;10.08;6.05;;;;;;;11.96;35.80;102817.63;1732370;82;21047;-49
2021/10/10 02:28:32;;;;;;;11.35;5.72;;;;;;;11.92;35.64;102811.95;1732783;82;21059;-49
2021/10/10 02:30:59;;;;;;;12.63;6.05;;;;;;;11.90;35.59;102805.84;1729025;82;21070;-49
2021/10/10 02:33:25;;;;;;;8.83;5.78;;;;;;;11.88;35.88;102806.28;1735916;82;20951;-49
2021/10/10 02:35:52;;;;;;;8.38;5.65;;;;;;;11.85;36.19;102799.75;1734351;82;21462;-48
2021/10/10 02:38:19;;;;;;;8.13;5.53;;;;;;;11.81;36.15;102800.14;1734406;82;20982;-49
2021/10/10 02:40:45;;;;;;;10.82;6.10;;;;;;;11.80;36.52;102793.63;1734911;82;21006;-49
2021/10/10 02:43:11;;;;;;;9.88;5.83;;;;;;;11.79;36.25;102794.05;1735840;82;21463;-48
2021/10/10 02:45:38;;;;;;;8.55;6.28;;;;;;;11.79;36.46;102798.39;1719155;82;21099;-49
2021/10/10 02:48:06;;;;;;;11.25;5.83;;;;;;;11.76;36.05;102799.69;1738336;82;21038;-50
2021/10/10 02:50:33;;;;;;;8.55;6.10;;;;;;;11.74;35.84;102799.69;1735014;82;21018;-49
2021/10/10 02:53:00;;;;;;;11.35;5.75;;;;;;;11.71;36.01;102806.59;1735741;82;20995;-49
2021/10/10 02:55:26;;;;;;;12.68;5.70;;;;;;;11.69;36.24;102807.02;1734713;82;21007;-49
2021/10/10 02:57:53;;;;;;;12.23;5.95;;;;;;;11.67;36.31;102802.23;1733005;82;21030;-50
2021/10/10 03:00:20;;;;;;;11.33;6.78;;;;;;;11.67;36.67;102803.53;1722233;82;21054;-49
2021/10/10 03:02:47;;;;;;;11.57;7.03;;;;;;;11.63;36.58;102798.70;1734845;82;21066;-46
2021/10/10 03:05:13;;;;;;;14.93;7.03;;;;;;;11.61;36.36;102795.22;1735940;82;21042;-50
2021/10/10 03:07:40;;;;;;;14.55;7.65;;;;;;;11.59;36.21;102801.28;1735737;82;20994;-50
2021/10/10 03:10:08;;;;;;;8.75;6.30;;;;;;;11.56;36.55;102798.67;1733262;82;21490;-49
2021/10/10 03:12:34;;;;;;;12.25;6.30;;;;;;;11.54;36.38;102806.45;1732790;82;21471;-49
2021/10/10 03:15:01;;;;;;;11.50;6.80;;;;;;;11.51;36.76;102797.75;1723350;82;20987;-49
2021/10/10 03:17:29;;;;;;;12.45;6.83;;;;;;;11.48;37.02;102796.87;1735358;82;21101;-50
2021/10/10 03:19:55;;;;;;;9.68;6.47;;;;;;;11.48;36.59;102799.05;1732756;82;21066;-49
2021/10/10 03:22:22;;;;;;;9.15;6.40;;;;;;;11.45;36.76;102798.59;1733104;82;20991;-46
2021/10/10 03:24:49;;;;;;;9.58;6.75;;;;;;;11.42;36.95;102799.44;1723623;82;21022;-50
2021/10/10 03:27:16;;;;;;;10.20;6.53;;;;;;;11.43;37.17;102798.59;1730409;82;21086;-50
2021/10/10 03:29:43;;;;;;;11.90;6.53;;;;;;;11.43;36.75;102801.62;1738073;82;20991;-49
2021/10/10 03:32:09;;;;;;;14.25;6.60;;;;;;;11.40;36.86;102788.12;1734096;82;21002;-49
2021/10/10 03:34:36;;;;;;;15.18;6.65;;;;;;;11.40;36.95;102784.22;1732550;82;21063;-48
2021/10/10 03:37:03;;;;;;;9.78;6.87;;;;;;;11.40;37.01;102785.52;1732534;82;21015;-49
2021/10/10 03:39:30;;;;;;;12.65;6.83;;;;;;;11.35;37.40;102788.51;1732871;82;21026;-47
2021/10/10 03:41:56;;;;;;;11.93;6.80;;;;;;;11.36;37.31;102794.17;1732594;82;21042;-49
2021/10/10 03:44:23;;;;;;;9.25;6.60;;;;;;;11.35;36.79;102789.81;1730919;82;20978;-49
2021/10/10 03:46:49;;;;;;;10.18;6.45;;;;;;;11.32;36.59;102781.98;1727351;82;21026;-49
2021/10/10 03:49:16;;;;;;;8.25;5.87;;;;;;;11.29;36.87;102782.41;1732183;82;21058;-49
2021/10/10 03:51:42;;;;;;;12.85;7.40;;;;;;;11.27;36.84;102779.77;1733470;82;21023;-49
2021/10/10 03:54:52;;;;;;;11.55;7.08;;;;;;;11.22;36.99;102782.78;1735837;82;20967;-50
2021/10/10 03:56:43;;;;;;;11.95;7.15;;;;;;;11.20;37.21;102788.84;1731703;82;21514;-50
2021/10/10 03:59:10;;;;;;;10.30;6.15;;;;;;;11.18;37.25;102787.95;1735217;82;21098;-49
2021/10/10 04:01:37;;;;;;;11.65;6.28;;;;;;;11.19;37.40;102792.32;1732904;82;21038;-49
2021/10/10 04:04:04;;;;;;;10.85;6.70;;;;;;;11.17;37.56;102783.62;1731722;82;21486;-50
2021/10/10 04:06:31;;;;;;;9.75;6.35;;;;;;;11.14;37.19;102779.25;1735729;82;21058;-49
2021/10/10 04:08:57;;;;;;;14.40;6.72;;;;;;;11.11;37.58;102777.91;1735917;82;21014;-51
2021/10/10 04:11:24;;;;;;;13.43;8.15;;;;;;;11.11;37.42;102779.63;1724385;82;20979;-49
2021/10/10 04:13:51;;;;;;;10.80;7.70;;;;;;;11.11;37.83;102789.63;1730303;82;21062;-49
2021/10/10 04:16:17;;;;;;;11.78;7.08;;;;;;;11.08;37.10;102787.02;1734770;82;21572;-49
2021/10/10 04:18:44;;;;;;;9.75;6.42;;;;;;;11.06;37.44;102784.83;1735619;82;21019;-49
2021/10/10 04:21:11;;;;;;;12.33;6.22;;;;;;;11.05;37.69;102780.88;1740906;82;21062;-47
2021/10/10 04:23:38;;;;;;;12.10;6.70;;;;;;;11.04;37.97;102781.34;1739132;82;21074;-49
2021/10/10 04:26:05;;;;;;;9.65;6.50;;;;;;;11.04;37.91;102783.95;1731553;82;21051;-49
2021/10/10 04:28:33;;;;;;;10.85;6.35;;;;;;;11.02;38.19;102788.27;1739005;82;21502;-49
2021/10/10 04:30:59;;;;;;;12.53;7.10;;;;;;;11.04;38.56;102781.34;1734382;82;20994;-49
2021/10/10 04:33:26;;;;;;;10.78;7.05;;;;;;;11.07;38.47;102781.34;1737249;82;21026;-49
2021/10/10 04:35:53;;;;;;;9.78;6.97;;;;;;;11.06;38.57;102772.23;1736047;82;20991;-51
2021/10/10 04:38:19;;;;;;;12.63;6.72;;;;;;;11.05;38.19;102773.95;1738171;81;21046;-50
2021/10/10 04:40:46;;;;;;;10.10;7.03;;;;;;;11.03;38.18;102778.27;1731320;81;21014;-49
2021/10/10 04:43:12;;;;;;;9.60;6.85;;;;;;;11.03;38.20;102784.79;1741409;82;21034;-49
2021/10/10 04:45:40;;;;;;;11.75;7.58;;;;;;;11.03;38.01;102776.97;1724799;82;21057;-50
2021/10/10 04:48:06;;;;;;;14.25;8.28;;;;;;;11.03;38.23;102784.79;1739391;81;21041;-49
2021/10/10 04:50:33;;;;;;;16.05;9.15;;;;;;;11.03;38.38;102783.48;1742000;82;21065;-49
2021/10/10 04:52:59;;;;;;;10.40;7.05;;;;;;;11.04;38.54;102782.64;1740947;82;21030;-50
2021/10/10 04:55:26;;;;;;;11.88;8.13;;;;;;;11.04;38.51;102782.64;1740306;82;21007;-47
2021/10/10 04:57:53;;;;;;;11.63;7.50;;;;;;;11.04;38.26;102784.36;1737609;81;21526;-49
2021/10/10 05:00:19;;;;;;;13.62;7.70;;;;;;;11.02;38.33;102792.17;1738537;82;21018;-49
2021/10/10 05:02:46;;;;;;;10.90;7.87;;;;;;;11.01;38.56;102787.81;1738114;82;20994;-50
2021/10/10 05:05:12;;;;;;;18.30;7.03;;;;;;;11.01;38.88;102796.92;1737997;81;21046;-48
2021/10/10 05:07:39;;;;;;;10.70;8.13;;;;;;;11.03;38.74;102803.02;1739693;82;21053;-48
2021/10/10 05:10:08;;;;;;;10.25;7.80;;;;;;;11.05;38.66;102807.81;1737985;82;21006;-49
2021/10/10 05:12:37;;;;;;;11.75;7.83;;;;;;;11.08;38.76;102807.86;1743480;82;21074;-50
2021/10/10 05:15:05;;;;;;;12.37;7.65;;;;;;;11.11;39.12;102815.69;1736654;82;21514;-47
2021/10/10 05:17:32;;;;;;;11.83;7.00;;;;;;;11.12;39.07;102810.94;1744481;81;21498;-50
2021/10/10 05:19:59;;;;;;;11.25;6.58;;;;;;;11.15;39.07;102820.06;1739171;82;21027;-49
2021/10/10 05:22:26;;;;;;;9.88;6.58;;;;;;;11.18;39.11;102820.10;1737365;82;21026;-49
2021/10/10 05:24:54;;;;;;;9.53;6.62;;;;;;;11.21;38.95;102833.14;1728578;82;20999;-50
2021/10/10 05:27:21;;;;;;;8.95;6.22;;;;;;;11.24;39.07;102822.76;1699126;84;21027;-49
2021/10/10 05:29:48;;;;;;;10.48;6.12;;;;;;;11.29;39.21;102832.77;1681122;85;20999;-50
2021/10/10 05:32:14;;;;;;;11.45;7.30;;;;;;;11.32;38.87;102831.51;1700780;84;21484;-50
2021/10/10 05:34:41;;;;;;;9.88;6.45;;;;;;;11.36;39.07;102825.45;1700133;83;21028;-49
2021/10/10 05:37:09;;;;;;;11.75;7.28;;;;;;;11.39;39.02;102826.80;1700219;83;21078;-49
2021/10/10 05:39:35;;;;;;;10.58;6.03;;;;;;;11.42;39.16;102822.02;1700398;83;21502;-51
2021/10/10 05:42:03;;;;;;;13.40;7.70;;;;;;;11.44;39.06;102822.90;1735610;82;20963;-49
2021/10/10 05:44:29;;;;;;;11.30;7.12;;;;;;;11.48;39.06;102824.66;1732328;82;21058;-49
2021/10/10 05:46:56;;;;;;;10.00;6.92;;;;;;;11.53;38.73;102829.50;1731558;82;21495;-47
2021/10/10 05:49:23;;;;;;;10.98;7.22;;;;;;;11.57;38.91;102830.37;1731842;82;21038;-50
2021/10/10 05:51:50;;;;;;;11.53;7.10;;;;;;;11.60;38.74;102828.69;1738777;82;21503;-49
2021/10/10 05:54:18;;;;;;;12.20;6.95;;;;;;;11.62;38.72;102826.09;1737494;82;21026;-48
2021/10/10 05:56:44;;;;;;;13.95;6.42;;;;;;;11.67;38.71;102825.70;1735821;81;21009;-47
2021/10/10 05:59:15;;;;;;;11.83;7.03;;;;;;;11.75;38.78;102834.45;1734043;82;21571;-50
2021/10/10 06:01:41;;;;;;;11.70;6.97;;;;;;;11.85;38.86;102838.88;1733531;82;21062;-50
2021/10/10 06:04:07;;;;;;;11.78;7.30;;;;;;;11.98;38.72;102840.25;1739899;81;21022;-49
2021/10/10 06:06:34;;;;;;;11.63;7.10;;;;;;;12.13;38.60;102844.69;1737918;82;21022;-49
2021/10/10 06:09:03;;;;;;;11.97;7.42;;;;;;;12.29;38.24;102839.97;1730491;82;20994;-50
2021/10/10 06:11:29;;;;;;;12.43;7.10;;;;;;;12.43;37.53;102840.89;1735548;82;21050;-49
2021/10/10 06:13:59;;;;;;;42.85;9.55;;;;;;;12.52;37.47;102836.14;1735715;82;21515;-50
2021/10/10 06:16:28;;;;;;;12.10;7.07;;;;;;;12.54;37.33;102837.89;1737332;81;21050;-50
2021/10/10 06:18:55;;;;;;;8.23;6.45;;;;;;;12.59;37.36;102840.06;1713337;82;20982;-49
2021/10/10 06:21:22;;;;;;;10.65;7.30;;;;;;;12.66;37.32;102848.38;1728894;82;21546;-50
2021/10/10 06:23:48;;;;;;;9.98;7.22;;;;;;;12.72;37.18;102848.38;1726475;82;21042;-49
2021/10/10 06:26:15;;;;;;;12.98;8.10;;;;;;;12.79;36.88;102835.79;1721013;82;20983;-50
2021/10/10 06:28:41;;;;;;;12.90;7.47;;;;;;;12.80;36.93;102840.13;1727267;82;21042;-49
2021/10/10 06:31:08;;;;;;;11.48;7.40;;;;;;;12.81;36.86;102835.78;1728988;82;21027;-50
2021/10/10 06:33:35;;;;;;;15.03;8.10;;;;;;;12.84;36.84;102841.00;1730590;82;21624;-50
2021/10/10 06:36:01;;;;;;;10.72;7.55;;;;;;;12.87;36.88;102835.37;1726368;82;21011;-49
2021/10/10 06:38:28;;;;;;;13.72;8.40;;;;;;;12.95;37.00;102832.33;1729658;82;21055;-49
2021/10/10 06:40:54;;;;;;;17.50;8.90;;;;;;;13.06;36.57;102830.61;1727836;82;21070;-49
2021/10/10 06:43:21;;;;;;;13.08;7.62;;;;;;;13.15;37.12;102836.28;1727060;82;21007;-49
2021/10/10 06:45:48;;;;;;;11.53;8.03;;;;;;;13.23;37.27;102824.55;1727220;82;21050;-50
2021/10/10 06:48:15;;;;;;;11.75;8.25;;;;;;;13.30;37.24;102823.66;1727620;82;21003;-49
2021/10/10 06:50:42;;;;;;;12.10;7.85;;;;;;;13.35;37.29;102827.16;1723956;82;21062;-46
2021/10/10 06:53:08;;;;;;;10.70;6.97;;;;;;;13.37;37.38;102829.34;1727654;82;20983;-50
2021/10/10 06:55:35;;;;;;;10.98;6.97;;;;;;;13.40;37.28;102825.39;1727290;82;21011;-50
2021/10/10 06:58:02;;;;;;;14.07;7.25;;;;;;;13.39;37.31;102827.16;1727920;82;21059;-47
2021/10/10 07:00:29;;;;;;;11.68;7.33;;;;;;;13.39;37.02;102823.67;1727396;82;20991;-50
2021/10/10 07:02:56;;;;;;;13.85;7.70;;;;;;;13.39;37.43;102823.23;1727730;82;21050;-48
2021/10/10 07:05:22;;;;;;;15.15;9.58;;;;;;;13.38;37.88;102824.09;1730657;82;21019;-49
2021/10/10 07:07:49;;;;;;;13.93;7.80;;;;;;;13.38;37.72;102824.52;1730335;82;21042;-49
2021/10/10 07:10:16;;;;;;;18.12;8.75;;;;;;;13.40;37.92;102825.39;1726344;82;21046;-52
2021/10/10 07:12:43;;;;;;;16.20;8.13;;;;;;;13.40;38.20;102824.97;1725308;82;20991;-50
2021/10/10 07:15:13;;;;;;;10.40;7.58;;;;;;;13.44;38.28;102827.13;1732703;82;21499;-50
2021/10/10 07:17:39;;;;;;;14.15;7.72;;;;;;;13.47;38.32;102823.22;1729093;82;21059;-49
2021/10/10 07:20:18;;;;;;;9.33;7.25;;;;;;;13.50;38.38;102820.59;1727698;82;21038;-47
2021/10/10 07:25:10;;;;;;;9.25;7.12;;;;;;;13.57;38.16;102831.49;1727418;82;21055;-49
2021/10/10 07:27:42;;;;;;;15.75;7.62;;;;;;;13.61;38.46;102831.49;1727738;82;21084;-49
2021/10/10 07:30:13;;;;;;;15.90;7.67;;;;;;;13.67;38.52;102829.30;1727013;82;21535;-50
2021/10/10 07:32:40;;;;;;;14.90;7.57;;;;;;;13.73;38.61;102825.36;1728157;82;21050;-49
2021/10/10 07:35:08;;;;;;;11.35;7.45;;;;;;;13.80;38.80;102824.48;1723813;82;21028;-49
2021/10/10 07:37:36;;;;;;;11.85;7.83;;;;;;;13.85;39.10;102821.40;1730422;82;20967;-50
2021/10/10 07:40:05;;;;;;;12.18;7.78;;;;;;;13.90;39.15;102819.66;1729263;82;21022;-47
2021/10/10 07:42:32;;;;;;;11.25;8.40;;;;;;;13.97;38.42;102813.54;1727327;82;21086;-49
2021/10/10 07:45:10;;;;;;;12.68;7.65;;;;;;;14.06;38.05;102817.42;1726651;82;21035;-50
2021/10/10 07:50:10;;;;;;;8.83;7.10;;;;;;;14.24;37.19;102814.72;1730209;82;21014;-49
2021/10/10 07:52:37;;;;;;;10.58;8.20;;;;;;;14.34;37.07;102823.00;1727628;82;21007;-52
2021/10/10 07:55:06;;;;;;;12.78;7.25;;;;;;;14.42;36.90;102819.94;1727958;82;20963;-48
2021/10/10 07:57:32;;;;;;;11.60;7.72;;;;;;;14.49;36.61;102811.15;1727198;82;21546;-49
2021/10/10 07:59:59;;;;;;;11.80;7.53;;;;;;;14.56;36.80;102805.01;1727767;82;21027;-50
2021/10/10 08:02:30;;;;;;;11.80;7.15;;;;;;;14.65;37.22;102815.42;1723140;82;21522;-47
2021/10/10 08:04:56;;;;;;;12.28;7.80;;;;;;;14.73;37.41;102809.27;1729459;82;21495;-48
2021/10/10 08:07:23;;;;;;;18.12;7.78;;;;;;;14.80;37.19;102809.21;1727286;82;21019;-49
2021/10/10 08:09:50;;;;;;;11.88;7.78;;;;;;;14.88;36.84;102806.56;1727611;82;21444;-48
2021/10/10 08:12:16;;;;;;;13.35;7.35;;;;;;;14.93;37.00;102806.95;1727690;82;21085;-50
2021/10/10 08:14:43;;;;;;;10.82;7.72;;;;;;;15.00;36.94;102807.78;1727307;82;21551;-50
2021/10/10 08:17:11;;;;;;;11.28;7.85;;;;;;;15.06;36.61;102809.92;1724830;82;21480;-50
2021/10/10 08:19:37;;;;;;;15.08;8.00;;;;;;;15.14;35.95;102821.22;1725268;82;21006;-48
2021/10/10 08:22:04;;;;;;;12.58;7.40;;;;;;;15.23;36.04;102812.38;1738951;82;21055;-49
2021/10/10 08:24:31;;;;;;;10.20;7.10;;;;;;;15.28;36.25;102818.47;1737598;82;21075;-49
2021/10/10 08:26:58;;;;;;;11.22;6.95;;;;;;;15.36;35.95;102810.09;1735820;82;21002;-50
2021/10/10 08:29:24;;;;;;;13.05;7.15;;;;;;;15.41;35.63;102808.31;1735012;82;20991;-50
2021/10/10 08:31:51;;;;;;;14.30;9.45;;;;;;;15.49;36.00;102809.13;1728227;82;21006;-50
2021/10/10 08:34:18;;;;;;;16.07;9.58;;;;;;;15.55;35.94;102802.52;1737440;82;21014;-48
2021/10/10 08:36:44;;;;;;;13.85;8.98;;;;;;;15.63;35.56;102805.93;1738740;82;20955;-50
2021/10/10 08:39:11;;;;;;;16.48;10.43;;;;;;;15.68;35.82;102799.33;1738466;82;21479;-50
2021/10/10 08:41:37;;;;;;;15.95;9.28;;;;;;;15.75;35.85;102799.23;1735680;82;21007;-47
2021/10/10 08:44:05;;;;;;;10.78;7.55;;;;;;;15.83;35.76;102797.83;1683544;82;21022;-49
2021/10/10 08:46:35;;;;;;;9.40;7.40;;;;;;;15.89;35.75;102796.01;1731530;82;21026;-49
2021/10/10 08:49:01;;;;;;;11.48;6.95;;;;;;;15.97;35.80;102794.16;1736597;81;21061;-49
2021/10/10 08:51:31;;;;;;;10.03;7.45;;;;;;;16.06;35.57;102794.06;1738437;82;20999;-51
2021/10/10 08:54:00;;;;;;;13.95;6.80;;;;;;;16.15;35.40;102791.77;1732445;82;21529;-50
2021/10/10 08:56:26;;;;;;;11.63;7.00;;;;;;;16.21;35.40;102794.32;1737136;82;21030;-47
2021/10/10 08:58:53;;;;;;;11.63;7.40;;;;;;;16.28;35.57;102797.27;1735252;82;21066;-50
2021/10/10 09:01:27;;;;;;;16.97;6.95;;;;;;;16.35;35.59;102795.44;1725555;82;21070;-50
2021/10/10 09:03:55;;;;;;;12.55;7.00;;;;;;;16.40;35.52;102780.06;1734196;82;21023;-48
2021/10/10 09:06:23;;;;;;;12.60;6.95;;;;;;;16.45;35.62;102778.66;1738106;82;21554;-48
2021/10/10 09:08:52;;;;;;;10.28;6.47;;;;;;;16.51;35.45;102781.23;1735322;82;21022;-50
2021/10/10 09:11:18;;;;;;;12.05;7.40;;;;;;;16.58;35.31;102786.84;1726039;82;21015;-49
2021/10/10 09:13:47;;;;;;;11.12;6.60;;;;;;;16.63;34.67;102785.03;1737498;81;21039;-48
2021/10/10 09:16:14;;;;;;;10.55;6.80;;;;;;;16.66;34.73;102788.91;1725389;82;21099;-49
2021/10/10 09:18:43;;;;;;;10.82;6.20;;;;;;;16.69;34.34;102784.94;1712530;82;21030;-50
2021/10/10 09:21:18;;;;;;;10.78;6.35;;;;;;;16.71;34.35;102787.09;1678424;85;21594;-50
2021/10/10 09:23:53;;;;;;;12.53;6.85;;;;;;;16.75;34.75;102784.41;1672203;85;21034;-47
2021/10/10 09:26:19;;;;;;;12.28;6.58;;;;;;;16.79;35.13;102791.78;1670880;85;21047;-50
2021/10/10 09:28:46;;;;;;;11.68;7.22;;;;;;;16.83;34.97;102789.53;1679574;85;21023;-48
2021/10/10 09:31:14;;;;;;;9.05;6.67;;;;;;;16.85;34.88;102782.48;1680071;85;21020;-50
2021/10/10 09:36:25;;;;;;;9.50;6.37;;;;;;;16.95;34.71;102790.65;1618067;88;21070;-48
2021/10/10 09:41:45;;;;;;;8.95;7.03;;;;;;;16.99;33.78;102781.81;1600411;89;21026;-49
2021/10/10 09:44:21;;;;;;;9.68;6.58;;;;;;;17.00;34.00;102779.63;1596506;89;21076;-51
2021/10/10 09:46:50;;;;;;;11.83;6.47;;;;;;;17.03;34.31;102787.45;1569407;91;21555;-50
2021/10/10 09:49:32;;;;;;;9.50;6.05;;;;;;;17.04;33.90;102783.94;1599602;89;21077;-47
2021/10/10 09:52:10;;;;;;;;;;;;;;;17.06;34.12;102786.94;1604237;89;21037;-49
2021/10/10 09:54:57;;;;;;;9.05;6.22;;;;;;;17.11;34.19;102782.92;1601933;89;20423;-50
2021/10/10 09:57:27;;;;;;;12.03;6.03;;;;;;;17.17;34.00;102784.58;1601931;89;21650;-50
2021/10/10 09:59:55;;;;;;;8.15;5.53;;;;;;;17.20;33.49;102781.91;1555695;92;21098;-47
2021/10/10 10:02:39;;;;;;;14.40;6.78;;;;;;;17.21;33.46;102777.08;1550055;92;21562;-50
2021/10/10 10:05:07;;;;;;;8.20;6.37;;;;;;;17.25;33.48;102776.98;1550112;92;21634;-47
2021/10/10 10:07:33;;;;;;;9.55;6.50;;;;;;;17.26;33.02;102772.16;1520147;94;21562;-50
2021/10/10 10:10:02;;;;;;;7.83;5.50;;;;;;;17.29;32.90;102770.77;1520227;92;21161;-48
2021/10/10 10:12:30;;;;;;;9.83;6.28;;;;;;;17.33;32.36;102768.50;1521670;94;21089;-49
2021/10/10 10:15:01;;;;;;;13.65;6.08;;;;;;;17.35;32.76;102769.81;1519524;93;21123;-49
2021/10/10 10:17:28;;;;;;;13.62;6.60;;;;;;;17.37;32.83;102764.92;1527840;92;21196;-50
2021/10/10 10:19:57;;;;;;;10.58;6.45;;;;;;;17.38;32.07;102766.67;1546334;92;21040;-50
2021/10/10 10:22:25;;;;;;;10.15;6.67;;;;;;;17.39;32.30;102773.69;1551863;92;21138;-46
2021/10/10 10:24:52;;;;;;;11.48;6.42;;;;;;;17.40;31.84;102771.89;1567917;91;21195;-47
2021/10/10 10:27:21;;;;;;;12.05;6.12;;;;;;;17.40;32.20;102762.24;1550763;92;21055;-51
2021/10/10 10:29:48;;;;;;;10.68;6.12;;;;;;;17.40;32.03;102764.88;1569314;91;21126;-50
2021/10/10 10:32:15;;;;;;;9.18;5.55;;;;;;;17.43;32.20;102766.59;1559780;89;21078;-50
2021/10/10 10:35:02;;;;;;;8.43;6.17;;;;;;;17.47;32.41;102769.14;1595383;89;21562;-50
2021/10/10 10:37:49;;;;;;;11.45;6.25;;;;;;;17.54;32.42;102772.09;1599542;88;21144;-50
2021/10/10 10:40:27;;;;;;;10.80;6.35;;;;;;;17.61;32.80;102761.89;1612173;89;21120;-52
2021/10/10 10:42:56;;;;;;;13.50;6.55;;;;;;;17.65;32.35;102759.61;1611624;89;21081;-49
2021/10/10 10:45:42;;;;;;;11.53;7.30;;;;;;;17.68;32.25;102760.02;1612192;89;21027;-48
2021/10/10 10:48:29;;;;;;;14.38;6.65;;;;;;;17.69;32.13;102762.60;1612346;89;21078;-49
2021/10/10 10:51:26;;;;;;;12.20;6.25;;;;;;;17.72;32.38;102757.27;1612104;89;21076;-53
2021/10/10 10:53:52;;;;;;;9.88;6.85;;;;;;;17.75;32.44;102755.90;1582658;90;21153;-50
2021/10/10 10:56:28;;;;;;;12.07;6.55;;;;;;;17.78;32.85;102751.87;1590194;89;21045;-49
2021/10/10 10:58:58;;;;;;;11.85;7.30;;;;;;;17.82;32.76;102749.63;1600108;89;21650;-47
2021/10/10 11:01:23;;;;;;;11.93;6.75;;;;;;;17.87;32.83;102751.70;1601975;89;21121;-49
2021/10/10 11:03:50;;;;;;;10.23;6.28;;;;;;;17.89;32.91;102752.53;1602090;89;21054;-50
2021/10/10 11:06:20;;;;;;;9.98;6.33;;;;;;;17.92;32.42;102758.64;1602097;89;21491;-51
2021/10/10 11:08:47;;;;;;;11.97;6.62;;;;;;;17.92;32.75;102754.25;1601933;89;21590;-46
2021/10/10 11:11:23;;;;;;;7.53;5.83;;;;;;;17.96;32.90;102757.67;1602142;89;21034;-49
2021/10/10 11:13:57;;;;;;;9.38;6.00;;;;;;;17.99;32.89;102747.09;1601807;89;21098;-50
2021/10/10 11:16:32;;;;;;;8.58;5.37;;;;;;;18.03;32.62;102754.03;1580360;91;21525;-49
2021/10/10 11:19:09;;;;;;;7.85;5.70;;;;;;;18.07;32.28;102746.48;1570908;91;21158;-50
2021/10/10 11:21:42;;;;;;;9.30;5.62;;;;;;;18.10;32.10;102750.34;1481266;97;21612;-47
2021/10/10 11:24:21;;;;;;;9.73;5.60;;;;;;;18.12;32.11;102751.17;1481596;97;21095;-49
2021/10/10 11:26:50;;;;;;;9.43;5.50;;;;;;;18.13;32.58;102748.98;1481404;97;21159;-49
2021/10/10 11:29:22;;;;;;;9.83;5.95;;;;;;;18.15;33.03;102752.45;1466726;98;21093;-49
2021/10/10 11:31:49;;;;;;;6.42;5.15;;;;;;;18.19;33.12;102742.26;1466942;98;21538;-50
2021/10/10 11:34:18;;;;;;;8.90;5.80;;;;;;;18.23;32.99;102747.88;1466747;98;21162;-47